createdAt,value
2023-03-28T00:00:17.370Z,66.82
2023-03-28T00:04:23.520Z,66.23
2023-03-28T00:08:29.603Z,66.14
2023-03-28T00:12:32.029Z,65.80
2023-03-28T00:16:35.756Z,65.68
2023-03-28T00:20:40.566Z,65.63
2023-03-28T00:24:44.726Z,65.51
2023-03-28T00:28:46.324Z,66.62
2023-03-28T00:32:46.803Z,65.28
2023-03-28T00:36:47.698Z,65.71
2023-03-28T00:40:50.549Z,65.42
2023-03-28T00:44:55.846Z,64.62
2023-03-28T00:49:05.323Z,64.79
2023-03-28T00:53:13.879Z,64.22
2023-03-28T00:57:18.943Z,65.43
2023-03-28T01:01:24.053Z,65.29
2023-03-28T01:05:30.230Z,65.50
2023-03-28T01:09:31.049Z,65.71
2023-03-28T01:13:42.217Z,64.32
2023-03-28T01:17:46.664Z,64.35
2023-03-28T01:22:18.849Z,64.12
2023-03-28T01:26:42.858Z,64.55
2023-03-28T01:31:17.206Z,64.53
2023-03-28T01:36:34.197Z,64.27
2023-03-28T01:40:51.170Z,64.02
2023-03-28T01:45:06.266Z,63.30
2023-03-28T01:49:19.843Z,62.62
2023-03-28T01:53:33.979Z,63.00
2023-03-28T01:57:46.632Z,62.45
2023-03-28T02:01:59.843Z,62.01
2023-03-28T02:06:03.548Z,61.59
2023-03-28T02:10:08.917Z,62.09
2023-03-28T02:14:31.170Z,63.25
2023-03-28T02:18:58.335Z,63.10
2023-03-28T02:23:24.030Z,62.74
2023-03-28T02:27:49.839Z,62.89
2023-03-28T02:32:17.999Z,62.98
2023-03-28T02:36:36.580Z,62.92
2023-03-28T02:40:55.515Z,62.61
2023-03-28T02:45:39.579Z,62.97
2023-03-28T02:50:07.382Z,62.92
2023-03-28T02:54:30.567Z,63.61
2023-03-28T02:59:12.028Z,64.15
2023-03-28T03:03:14.513Z,63.28
2023-03-28T03:07:18.568Z,64.06
2023-03-28T03:11:20.096Z,63.75
2023-03-28T03:15:21.760Z,64.31
2023-03-28T03:19:30.846Z,63.66
2023-03-28T03:23:33.821Z,63.58
2023-03-28T03:27:34.744Z,63.64
2023-03-28T03:31:37.397Z,62.64
2023-03-28T03:36:04.644Z,61.72
2023-03-28T03:40:11.472Z,62.73
2023-03-28T03:44:14.726Z,63.24
2023-03-28T03:48:16.245Z,63.44
2023-03-28T03:52:16.695Z,63.63
2023-03-28T03:56:21.610Z,63.94
2023-03-28T04:00:31.250Z,64.01
2023-03-28T04:04:32.565Z,63.21
2023-03-28T04:08:51.660Z,63.54
2023-03-28T04:13:09.150Z,63.21
2023-03-28T04:17:13.926Z,63.44
2023-03-28T04:21:17.176Z,62.75
2023-03-28T04:25:21.955Z,62.49
2023-03-28T04:29:31.022Z,62.53
2023-03-28T04:33:50.473Z,63.50
2023-03-28T04:37:54.797Z,63.73
2023-03-28T04:41:56.028Z,64.62
2023-03-28T04:46:26.098Z,63.94
2023-03-28T04:50:27.568Z,63.26
2023-03-28T04:54:30.051Z,62.96
2023-03-28T04:58:42.384Z,61.85
2023-03-28T05:02:46.527Z,63.58
2023-03-28T05:06:53.263Z,62.89
2023-03-28T05:10:55.487Z,63.58
2023-03-28T05:14:56.469Z,63.09
2023-03-28T05:19:00.380Z,62.59
2023-03-28T05:23:21.283Z,62.22
2023-03-28T05:27:24.784Z,61.94
2023-03-28T05:31:28.702Z,62.76
2023-03-28T05:35:44.870Z,61.20
2023-03-28T05:39:45.268Z,61.21
2023-03-28T05:43:46.801Z,61.24
2023-03-28T05:47:57.845Z,62.12
2023-03-28T05:52:01.425Z,62.06
2023-03-28T05:56:02.412Z,61.85
2023-03-28T06:00:04.004Z,61.38
2023-03-28T06:04:09.171Z,62.05
2023-03-28T06:08:13.350Z,61.97
2023-03-28T06:12:14.404Z,61.79
2023-03-28T06:16:30.471Z,62.46
2023-03-28T06:20:32.035Z,61.34
2023-03-28T06:24:37.449Z,60.82
2023-03-28T06:28:37.842Z,60.73
2023-03-28T06:32:52.393Z,59.61
2023-03-28T06:36:53.010Z,59.51
2023-03-28T06:40:57.387Z,58.79
2023-03-28T06:44:57.817Z,58.22
2023-03-28T06:49:16.242Z,59.02
2023-03-28T06:53:46.190Z,58.30
2023-03-28T06:57:50.288Z,59.04
2023-03-28T07:02:03.986Z,57.97
2023-03-28T07:06:12.473Z,58.34
2023-03-28T07:10:13.703Z,58.27
2023-03-28T07:14:18.740Z,57.34
2023-03-28T07:18:20.029Z,57.21
2023-03-28T07:22:20.610Z,57.57
2023-03-28T07:26:20.998Z,58.10
2023-03-28T07:30:25.631Z,59.46
2023-03-28T07:34:25.842Z,57.78
2023-03-28T07:38:26.562Z,57.27
2023-03-28T07:42:30.302Z,57.03
2023-03-28T07:46:37.741Z,55.44
2023-03-28T07:50:38.593Z,53.16
2023-03-28T07:54:39.334Z,52.57
2023-03-28T07:58:39.799Z,52.85
2023-03-28T08:02:46.368Z,52.81
2023-03-28T08:06:48.384Z,53.29
2023-03-28T08:10:51.393Z,53.30
2023-03-28T08:14:52.330Z,54.02
2023-03-28T08:19:09.973Z,51.73
2023-03-28T08:23:21.195Z,51.29
2023-03-28T08:27:51.343Z,52.27
2023-03-28T08:31:52.063Z,50.13
2023-03-28T08:35:59.244Z,49.58
2023-03-28T08:40:00.932Z,50.70
2023-03-28T08:44:41.379Z,48.69
2023-03-28T08:48:46.993Z,48.85
2023-03-28T08:52:51.203Z,47.22
2023-03-28T08:56:56.748Z,46.69
2023-03-28T09:00:57.208Z,47.24
2023-03-28T09:05:17.953Z,46.99
2023-03-28T09:09:40.242Z,45.98
2023-03-28T09:14:22.182Z,45.77
2023-03-28T09:18:52.624Z,44.84
2023-03-28T09:23:14.233Z,44.76
2023-03-28T09:27:58.970Z,43.58
2023-03-28T09:32:06.636Z,40.31
2023-03-28T09:36:31.569Z,40.73
2023-03-28T09:40:46.886Z,40.54
2023-03-28T09:45:35.291Z,37.72
2023-03-28T09:50:02.278Z,36.02
2023-03-28T09:54:12.443Z,38.13
2023-03-28T09:58:15.902Z,36.51
2023-03-28T10:02:56.436Z,34.06
2023-03-28T10:06:58.718Z,34.92
2023-03-28T10:11:04.532Z,35.52
2023-03-28T10:15:05.671Z,36.85
2023-03-28T10:19:43.277Z,36.31
2023-03-28T10:24:03.317Z,36.62
2023-03-28T10:28:05.646Z,36.88
2023-03-28T10:32:07.042Z,37.72
2023-03-28T10:36:33.082Z,37.75
2023-03-28T10:40:36.548Z,35.68
2023-03-28T10:45:03.324Z,37.03
2023-03-28T10:49:15.249Z,38.92
2023-03-28T10:53:48.151Z,39.21
2023-03-28T10:58:05.072Z,38.01
2023-03-28T11:02:53.225Z,38.57
2023-03-28T11:07:10.671Z,38.46
2023-03-28T11:11:51.589Z,36.61
2023-03-28T11:16:02.250Z,35.46
2023-03-28T11:20:32.716Z,36.42
2023-03-28T11:24:50.306Z,36.16
2023-03-28T11:29:36.851Z,36.92
2023-03-28T11:33:58.040Z,37.62
2023-03-28T11:38:06.110Z,38.98
2023-03-28T11:42:16.334Z,37.72
2023-03-28T11:46:30.444Z,36.88
2023-03-28T11:50:50.219Z,35.67
2023-03-28T11:55:18.825Z,37.31
2023-03-28T11:59:27.769Z,38.05
2023-03-28T12:03:39.187Z,37.14
2023-03-28T12:07:46.616Z,34.06
2023-03-28T12:12:08.872Z,35.25
2023-03-28T12:16:14.994Z,36.07
2023-03-28T12:20:31.167Z,34.25
2023-03-28T12:24:45.602Z,33.52
2023-03-28T12:28:57.150Z,29.08
2023-03-28T12:33:14.836Z,29.11
2023-03-28T12:37:36.862Z,30.92
2023-03-28T12:41:44.049Z,31.29
2023-03-28T12:45:49.708Z,29.37
2023-03-28T12:49:55.862Z,27.95
2023-03-28T12:54:26.191Z,26.64
2023-03-28T12:58:31.843Z,29.16
2023-03-28T13:02:54.200Z,29.35
2023-03-28T13:07:08.411Z,30.00
2023-03-28T13:11:27.170Z,28.63
2023-03-28T13:15:33.162Z,30.42
2023-03-28T13:19:51.411Z,33.99
2023-03-28T13:23:52.293Z,33.94
2023-03-28T13:27:58.749Z,33.01
2023-03-28T13:32:08.587Z,32.37
2023-03-28T13:36:25.767Z,31.86
2023-03-28T13:40:51.376Z,30.40
2023-03-28T13:44:58.971Z,31.63
2023-03-28T13:49:09.158Z,32.16
2023-03-28T13:53:09.569Z,32.85
2023-03-28T13:57:18.227Z,31.10
2023-03-28T14:01:25.453Z,30.25
2023-03-28T14:05:29.384Z,30.25
2023-03-28T14:09:36.403Z,31.12
2023-03-28T14:13:37.215Z,30.01
2023-03-28T14:17:42.918Z,30.30
2023-03-28T14:21:43.970Z,31.60
2023-03-28T14:25:44.548Z,33.02
2023-03-28T14:30:00.144Z,32.50
2023-03-28T14:34:16.343Z,32.37
2023-03-28T14:38:29.488Z,31.81
2023-03-28T14:42:33.268Z,29.99
2023-03-28T14:46:36.654Z,27.19
2023-03-28T14:50:42.628Z,26.97
2023-03-28T14:54:51.622Z,28.86
2023-03-28T14:58:54.027Z,29.41
2023-03-28T15:02:55.950Z,29.11
2023-03-28T15:07:01.191Z,27.76
2023-03-28T15:11:06.771Z,26.71
2023-03-28T15:15:09.830Z,26.38
2023-03-28T15:19:22.473Z,26.37
2023-03-28T15:23:33.379Z,27.46
2023-03-28T15:27:37.965Z,27.33
2023-03-28T15:31:42.948Z,27.78
2023-03-28T15:35:44.910Z,28.47
2023-03-28T15:39:50.933Z,27.71
2023-03-28T15:44:14.501Z,28.08
2023-03-28T15:48:22.910Z,27.93
2023-03-28T15:52:26.176Z,29.05
2023-03-28T15:56:35.993Z,30.30
2023-03-28T16:00:46.035Z,30.28
2023-03-28T16:05:01.897Z,31.15
2023-03-28T16:09:21.358Z,30.47
2023-03-28T16:13:25.219Z,31.15
2023-03-28T16:17:33.426Z,30.53
2023-03-28T16:21:49.280Z,30.60
2023-03-28T16:25:49.724Z,31.56
2023-03-28T16:29:56.915Z,31.20
2023-03-28T16:33:57.552Z,31.92
2023-03-28T16:37:59.153Z,32.39
2023-03-28T16:41:59.664Z,32.41
2023-03-28T16:46:03.396Z,32.77
2023-03-28T16:50:04.392Z,32.66
2023-03-28T16:54:05.084Z,32.84
2023-03-28T16:58:05.471Z,32.86
2023-03-28T17:02:17.648Z,33.13
2023-03-28T17:06:19.959Z,33.20
2023-03-28T17:10:21.162Z,33.84
2023-03-28T17:14:22.322Z,33.88
2023-03-28T17:18:25.806Z,34.05
2023-03-28T17:22:26.497Z,34.55
2023-03-28T17:26:27.335Z,34.76
2023-03-28T17:30:27.901Z,35.70
2023-03-28T17:34:32.188Z,36.53
2023-03-28T17:38:32.683Z,37.26
2023-03-28T17:42:36.129Z,37.67
2023-03-28T17:46:37.106Z,38.74
2023-03-28T17:50:41.792Z,39.32
2023-03-28T17:54:42.404Z,39.90
2023-03-28T17:58:43.163Z,41.31
2023-03-28T18:02:46.522Z,41.33
2023-03-28T18:07:22.319Z,42.94
2023-03-28T18:11:23.620Z,43.79
2023-03-28T18:15:27.255Z,43.93
2023-03-28T18:19:28.118Z,44.44
2023-03-28T18:23:31.313Z,43.80
2023-03-28T18:27:32.174Z,43.35
2023-03-28T18:31:33.280Z,44.30
2023-03-28T18:35:33.856Z,45.45
2023-03-28T18:39:41.982Z,46.54
2023-03-28T18:43:46.130Z,47.27
2023-03-28T18:47:47.077Z,47.10
2023-03-28T18:51:48.403Z,47.17
2023-03-28T18:55:52.741Z,47.72
2023-03-28T18:59:55.903Z,48.02
2023-03-28T19:03:56.962Z,48.30
2023-03-28T19:07:58.486Z,48.67
2023-03-28T19:12:02.146Z,48.88
2023-03-28T19:16:03.571Z,49.19
2023-03-28T19:20:07.764Z,49.67
2023-03-28T19:24:09.639Z,50.07
2023-03-28T19:28:12.817Z,52.08
2023-03-28T19:32:15.124Z,51.88
2023-03-28T19:36:16.286Z,51.85
2023-03-28T19:40:17.380Z,51.75
2023-03-28T19:44:20.928Z,52.02
2023-03-28T19:48:21.948Z,52.21
2023-03-28T19:52:22.518Z,52.83
2023-03-28T19:56:23.217Z,53.30
2023-03-28T20:00:27.624Z,53.03
2023-03-28T20:04:28.603Z,53.25
2023-03-28T20:08:29.290Z,53.16
2023-03-28T20:12:29.713Z,53.90
2023-03-28T20:16:33.096Z,54.23
2023-03-28T20:20:34.086Z,54.84
2023-03-28T20:24:35.028Z,54.90
2023-03-28T20:28:35.437Z,53.64
2023-03-28T20:32:39.298Z,53.38
2023-03-28T20:36:41.746Z,53.61
2023-03-28T20:40:43.337Z,53.38
2023-03-28T20:44:43.762Z,53.21
2023-03-28T20:48:47.363Z,53.28
2023-03-28T20:52:48.227Z,53.19
2023-03-28T20:56:49.518Z,53.17
2023-03-28T21:00:54.024Z,52.71
2023-03-28T21:04:57.223Z,52.75
2023-03-28T21:09:00.878Z,52.95
2023-03-28T21:13:01.679Z,53.22
2023-03-28T21:17:07.517Z,53.63
2023-03-28T21:21:11.782Z,53.35
2023-03-28T21:25:14.404Z,53.32
2023-03-28T21:29:15.109Z,53.63
2023-03-28T21:33:16.367Z,54.38
2023-03-28T21:37:19.309Z,54.59
2023-03-28T21:41:20.821Z,55.00
2023-03-28T21:45:21.452Z,54.73
2023-03-28T21:49:23.532Z,54.18
2023-03-28T21:53:26.398Z,54.35
2023-03-28T21:57:26.705Z,54.01
2023-03-28T22:01:27.134Z,53.64
2023-03-28T22:05:30.404Z,53.75
2023-03-28T22:09:34.389Z,53.70
2023-03-28T22:13:34.995Z,53.71
2023-03-28T22:17:38.668Z,53.19
2023-03-28T22:21:39.824Z,52.97
2023-03-28T22:25:43.242Z,52.75
2023-03-28T22:29:43.795Z,52.59
2023-03-28T22:33:44.522Z,52.72
2023-03-28T22:37:45.688Z,51.41
2023-03-28T22:41:49.429Z,50.97
2023-03-28T22:45:50.570Z,51.33
2023-03-28T22:49:54.146Z,51.17
2023-03-28T22:53:55.216Z,52.87
2023-03-28T22:57:58.343Z,53.52
2023-03-28T23:01:58.938Z,53.58
2023-03-28T23:06:06.318Z,53.69
2023-03-28T23:10:10.966Z,52.25
2023-03-28T23:14:14.783Z,52.14
2023-03-28T23:18:15.222Z,51.54
2023-03-28T23:22:15.868Z,51.49
2023-03-28T23:26:18.040Z,53.93
2023-03-28T23:30:21.641Z,54.06
2023-03-28T23:34:22.714Z,53.15
2023-03-28T23:38:23.212Z,54.14
2023-03-28T23:42:24.578Z,53.10
2023-03-28T23:46:27.634Z,53.24
2023-03-28T23:50:28.126Z,53.44
2023-03-28T23:54:30.228Z,53.49
2023-03-28T23:58:30.645Z,53.00
